sensor_id;sensor_type;location;lat;lon;timestamp;temperature;humidity
42019;DHT22;27703;51.980;5.848;2023-03-01T00:02:00;3.00;94.80
42019;DHT22;27703;51.980;5.848;2023-03-01T00:04:26;3.00;94.80
42019;DHT22;27703;51.980;5.848;2023-03-01T00:06:53;3.00;94.80
42019;DHT22;27703;51.980;5.848;2023-03-01T00:09:18;3.00;94.80
42019;DHT22;27703;51.980;5.848;2023-03-01T00:11:44;3.00;94.90
42019;DHT22;27703;51.980;5.848;2023-03-01T00:14:10;3.00;94.90
42019;DHT22;27703;51.980;5.848;2023-03-01T00:16:39;3.00;95.00
42019;DHT22;27703;51.980;5.848;2023-03-01T00:19:06;3.00;95.00
42019;DHT22;27703;51.980;5.848;2023-03-01T00:21:32;3.00;95.00
42019;DHT22;27703;51.980;5.848;2023-03-01T00:23:59;3.00;95.00
42019;DHT22;27703;51.980;5.848;2023-03-01T00:26:25;2.90;95.10
42019;DHT22;27703;51.980;5.848;2023-03-01T00:28:52;2.90;95.10
42019;DHT22;27703;51.980;5.848;2023-03-01T00:31:21;3.00;95.20
42019;DHT22;27703;51.980;5.848;2023-03-01T00:33:47;3.00;95.20
42019;DHT22;27703;51.980;5.848;2023-03-01T00:36:14;2.90;95.20
42019;DHT22;27703;51.980;5.848;2023-03-01T00:38:45;2.90;95.20
42019;DHT22;27703;51.980;5.848;2023-03-01T00:41:16;2.90;95.20
42019;DHT22;27703;51.980;5.848;2023-03-01T00:43:42;2.80;95.30
42019;DHT22;27703;51.980;5.848;2023-03-01T00:46:13;2.80;95.40
42019;DHT22;27703;51.980;5.848;2023-03-01T00:48:39;2.80;95.40
42019;DHT22;27703;51.980;5.848;2023-03-01T00:51:19;2.80;95.50
42019;DHT22;27703;51.980;5.848;2023-03-01T00:53:45;2.70;95.70
42019;DHT22;27703;51.980;5.848;2023-03-01T00:56:13;2.70;95.80
42019;DHT22;27703;51.980;5.848;2023-03-01T00:58:39;2.60;95.80
42019;DHT22;27703;51.980;5.848;2023-03-01T01:01:14;2.70;96.10
42019;DHT22;27703;51.980;5.848;2023-03-01T01:03:51;2.70;96.10
42019;DHT22;27703;51.980;5.848;2023-03-01T01:06:24;2.70;96.10
42019;DHT22;27703;51.980;5.848;2023-03-01T01:08:51;2.60;96.20
42019;DHT22;27703;51.980;5.848;2023-03-01T01:11:16;2.60;96.20
42019;DHT22;27703;51.980;5.848;2023-03-01T01:13:44;2.60;96.20
42019;DHT22;27703;51.980;5.848;2023-03-01T01:16:10;2.60;96.30
42019;DHT22;27703;51.980;5.848;2023-03-01T01:18:36;2.60;96.20
42019;DHT22;27703;51.980;5.848;2023-03-01T01:21:06;2.60;96.20
42019;DHT22;27703;51.980;5.848;2023-03-01T01:23:32;2.60;96.20
42019;DHT22;27703;51.980;5.848;2023-03-01T01:26:03;2.50;96.30
42019;DHT22;27703;51.980;5.848;2023-03-01T01:28:29;2.50;96.40
42019;DHT22;27703;51.980;5.848;2023-03-01T01:30:54;2.40;96.40
42019;DHT22;27703;51.980;5.848;2023-03-01T01:33:20;2.40;96.40
42019;DHT22;27703;51.980;5.848;2023-03-01T01:35:45;2.40;96.60
42019;DHT22;27703;51.980;5.848;2023-03-01T01:38:11;2.30;96.60
42019;DHT22;27703;51.980;5.848;2023-03-01T01:40:43;2.30;96.70
42019;DHT22;27703;51.980;5.848;2023-03-01T01:43:31;2.30;97.00
42019;DHT22;27703;51.980;5.848;2023-03-01T01:46:02;2.30;97.10
42019;DHT22;27703;51.980;5.848;2023-03-01T01:48:46;2.20;97.40
42019;DHT22;27703;51.980;5.848;2023-03-01T01:51:18;2.20;97.70
42019;DHT22;27703;51.980;5.848;2023-03-01T01:53:47;2.20;97.40
42019;DHT22;27703;51.980;5.848;2023-03-01T01:56:14;2.20;97.50
42019;DHT22;27703;51.980;5.848;2023-03-01T01:58:41;2.20;97.50
42019;DHT22;27703;51.980;5.848;2023-03-01T02:01:07;2.20;97.40
42019;DHT22;27703;51.980;5.848;2023-03-01T02:03:34;2.20;97.50
42019;DHT22;27703;51.980;5.848;2023-03-01T02:06:17;2.20;97.50
42019;DHT22;27703;51.980;5.848;2023-03-01T02:08:45;2.10;97.80
42019;DHT22;27703;51.980;5.848;2023-03-01T02:11:12;2.20;97.90
42019;DHT22;27703;51.980;5.848;2023-03-01T02:13:40;2.10;98.00
42019;DHT22;27703;51.980;5.848;2023-03-01T02:16:09;2.20;98.00
42019;DHT22;27703;51.980;5.848;2023-03-01T02:18:35;2.10;98.00
42019;DHT22;27703;51.980;5.848;2023-03-01T02:23:56;2.10;98.70
42019;DHT22;27703;51.980;5.848;2023-03-01T02:26:51;2.10;98.80
42019;DHT22;27703;51.980;5.848;2023-03-01T02:29:18;2.10;99.00
42019;DHT22;27703;51.980;5.848;2023-03-01T02:31:43;2.10;99.10
42019;DHT22;27703;51.980;5.848;2023-03-01T02:34:16;2.10;99.20
42019;DHT22;27703;51.980;5.848;2023-03-01T02:37:13;2.10;99.20
42019;DHT22;27703;51.980;5.848;2023-03-01T02:39:48;2.10;99.30
42019;DHT22;27703;51.980;5.848;2023-03-01T02:42:21;2.10;99.30
42019;DHT22;27703;51.980;5.848;2023-03-01T02:44:49;2.10;99.10
42019;DHT22;27703;51.980;5.848;2023-03-01T02:47:15;2.10;99.20
42019;DHT22;27703;51.980;5.848;2023-03-01T02:49:40;2.10;99.30
42019;DHT22;27703;51.980;5.848;2023-03-01T02:55:03;2.10;99.60
42019;DHT22;27703;51.980;5.848;2023-03-01T02:57:31;2.10;99.50
42019;DHT22;27703;51.980;5.848;2023-03-01T03:00:03;2.10;99.70
42019;DHT22;27703;51.980;5.848;2023-03-01T03:02:33;2.00;99.60
42019;DHT22;27703;51.980;5.848;2023-03-01T03:05:13;2.00;99.60
42019;DHT22;27703;51.980;5.848;2023-03-01T03:07:42;2.10;99.80
42019;DHT22;27703;51.980;5.848;2023-03-01T03:10:14;2.00;99.70
42019;DHT22;27703;51.980;5.848;2023-03-01T03:12:40;2.00;99.70
42019;DHT22;27703;51.980;5.848;2023-03-01T03:15:07;2.00;99.80
42019;DHT22;27703;51.980;5.848;2023-03-01T03:17:37;2.00;99.70
42019;DHT22;27703;51.980;5.848;2023-03-01T03:20:05;2.00;99.70
42019;DHT22;27703;51.980;5.848;2023-03-01T03:22:31;1.90;99.70
42019;DHT22;27703;51.980;5.848;2023-03-01T03:24:59;1.90;99.70
42019;DHT22;27703;51.980;5.848;2023-03-01T03:27:25;2.00;99.70
42019;DHT22;27703;51.980;5.848;2023-03-01T03:29:50;1.90;99.60
42019;DHT22;27703;51.980;5.848;2023-03-01T03:32:16;1.90;99.60
42019;DHT22;27703;51.980;5.848;2023-03-01T03:34:41;1.90;99.70
42019;DHT22;27703;51.980;5.848;2023-03-01T03:37:07;1.90;99.70
42019;DHT22;27703;51.980;5.848;2023-03-01T03:39:52;1.90;99.70
42019;DHT22;27703;51.980;5.848;2023-03-01T03:42:21;1.90;99.70
42019;DHT22;27703;51.980;5.848;2023-03-01T03:44:47;1.90;99.80
42019;DHT22;27703;51.980;5.848;2023-03-01T03:47:13;2.00;99.80
42019;DHT22;27703;51.980;5.848;2023-03-01T03:49:38;1.90;99.70
42019;DHT22;27703;51.980;5.848;2023-03-01T03:52:04;1.90;99.70
42019;DHT22;27703;51.980;5.848;2023-03-01T03:54:30;1.90;99.70
42019;DHT22;27703;51.980;5.848;2023-03-01T03:56:55;1.90;99.80
42019;DHT22;27703;51.980;5.848;2023-03-01T03:59:21;1.90;99.80
42019;DHT22;27703;51.980;5.848;2023-03-01T04:01:46;1.80;99.80
42019;DHT22;27703;51.980;5.848;2023-03-01T04:04:12;1.80;99.80
42019;DHT22;27703;51.980;5.848;2023-03-01T04:06:38;1.80;99.90
42019;DHT22;27703;51.980;5.848;2023-03-01T04:09:04;1.80;99.90
42019;DHT22;27703;51.980;5.848;2023-03-01T04:11:29;1.80;99.90
42019;DHT22;27703;51.980;5.848;2023-03-01T04:13:57;1.80;99.90
42019;DHT22;27703;51.980;5.848;2023-03-01T04:16:24;1.80;99.90
42019;DHT22;27703;51.980;5.848;2023-03-01T04:18:50;1.80;99.90
42019;DHT22;27703;51.980;5.848;2023-03-01T04:21:16;1.80;99.90
42019;DHT22;27703;51.980;5.848;2023-03-01T04:23:41;1.70;99.90
42019;DHT22;27703;51.980;5.848;2023-03-01T04:26:07;1.70;99.90
42019;DHT22;27703;51.980;5.848;2023-03-01T04:28:39;1.70;99.90
42019;DHT22;27703;51.980;5.848;2023-03-01T04:31:10;1.70;99.90
42019;DHT22;27703;51.980;5.848;2023-03-01T04:33:40;1.70;99.90
42019;DHT22;27703;51.980;5.848;2023-03-01T04:36:07;1.70;99.90
42019;DHT22;27703;51.980;5.848;2023-03-01T04:38:34;1.70;99.90
42019;DHT22;27703;51.980;5.848;2023-03-01T04:41:00;1.70;99.90
42019;DHT22;27703;51.980;5.848;2023-03-01T04:43:25;1.70;99.90
42019;DHT22;27703;51.980;5.848;2023-03-01T04:45:51;1.70;99.90
42019;DHT22;27703;51.980;5.848;2023-03-01T04:48:16;1.70;99.90
42019;DHT22;27703;51.980;5.848;2023-03-01T04:50:42;1.70;99.90
42019;DHT22;27703;51.980;5.848;2023-03-01T04:53:07;1.70;99.90
42019;DHT22;27703;51.980;5.848;2023-03-01T04:55:33;1.70;99.90
42019;DHT22;27703;51.980;5.848;2023-03-01T04:57:59;1.70;99.90
42019;DHT22;27703;51.980;5.848;2023-03-01T05:00:25;1.70;99.90
42019;DHT22;27703;51.980;5.848;2023-03-01T05:02:53;1.70;99.90
42019;DHT22;27703;51.980;5.848;2023-03-01T05:05:26;1.70;99.90
42019;DHT22;27703;51.980;5.848;2023-03-01T05:07:56;1.70;99.90
42019;DHT22;27703;51.980;5.848;2023-03-01T05:10:23;1.70;99.90
42019;DHT22;27703;51.980;5.848;2023-03-01T05:12:49;1.70;99.90
42019;DHT22;27703;51.980;5.848;2023-03-01T05:15:17;1.60;99.90
42019;DHT22;27703;51.980;5.848;2023-03-01T05:17:43;1.60;99.90
42019;DHT22;27703;51.980;5.848;2023-03-01T05:20:10;1.60;99.90
42019;DHT22;27703;51.980;5.848;2023-03-01T05:22:35;1.60;99.90
42019;DHT22;27703;51.980;5.848;2023-03-01T05:25:02;1.60;99.90
42019;DHT22;27703;51.980;5.848;2023-03-01T05:27:28;1.50;99.90
42019;DHT22;27703;51.980;5.848;2023-03-01T05:29:55;1.50;99.90
42019;DHT22;27703;51.980;5.848;2023-03-01T05:32:20;1.50;99.90
42019;DHT22;27703;51.980;5.848;2023-03-01T05:34:46;1.60;99.90
42019;DHT22;27703;51.980;5.848;2023-03-01T05:37:12;1.60;99.90
42019;DHT22;27703;51.980;5.848;2023-03-01T05:39:38;1.50;99.90
42019;DHT22;27703;51.980;5.848;2023-03-01T05:42:04;1.50;99.90
42019;DHT22;27703;51.980;5.848;2023-03-01T05:44:30;1.50;99.90
42019;DHT22;27703;51.980;5.848;2023-03-01T05:46:56;1.50;99.90
42019;DHT22;27703;51.980;5.848;2023-03-01T05:49:22;1.50;99.90
42019;DHT22;27703;51.980;5.848;2023-03-01T05:51:52;1.40;99.90
42019;DHT22;27703;51.980;5.848;2023-03-01T05:54:19;1.40;99.90
42019;DHT22;27703;51.980;5.848;2023-03-01T05:56:45;1.40;99.90
42019;DHT22;27703;51.980;5.848;2023-03-01T05:59:10;1.40;99.90
42019;DHT22;27703;51.980;5.848;2023-03-01T06:01:36;1.40;99.90
42019;DHT22;27703;51.980;5.848;2023-03-01T06:04:03;1.50;99.90
42019;DHT22;27703;51.980;5.848;2023-03-01T06:06:29;1.50;99.90
42019;DHT22;27703;51.980;5.848;2023-03-01T06:08:54;1.50;99.90
42019;DHT22;27703;51.980;5.848;2023-03-01T06:11:21;1.50;99.90
42019;DHT22;27703;51.980;5.848;2023-03-01T06:13:47;1.50;99.90
42019;DHT22;27703;51.980;5.848;2023-03-01T06:16:13;1.40;99.90
42019;DHT22;27703;51.980;5.848;2023-03-01T06:18:39;1.40;99.90
42019;DHT22;27703;51.980;5.848;2023-03-01T06:21:06;1.40;99.90
42019;DHT22;27703;51.980;5.848;2023-03-01T06:23:33;1.40;99.90
42019;DHT22;27703;51.980;5.848;2023-03-01T06:25:58;1.40;99.90
42019;DHT22;27703;51.980;5.848;2023-03-01T06:28:25;1.40;99.90
42019;DHT22;27703;51.980;5.848;2023-03-01T06:30:51;1.40;99.90
42019;DHT22;27703;51.980;5.848;2023-03-01T06:33:17;1.40;99.90
42019;DHT22;27703;51.980;5.848;2023-03-01T06:35:48;1.40;99.90
42019;DHT22;27703;51.980;5.848;2023-03-01T06:38:13;1.40;99.90
42019;DHT22;27703;51.980;5.848;2023-03-01T06:40:40;1.40;99.90
42019;DHT22;27703;51.980;5.848;2023-03-01T06:43:06;1.40;99.90
42019;DHT22;27703;51.980;5.848;2023-03-01T06:45:32;1.40;99.90
42019;DHT22;27703;51.980;5.848;2023-03-01T06:48:03;1.40;99.90
42019;DHT22;27703;51.980;5.848;2023-03-01T06:50:29;1.40;99.90
42019;DHT22;27703;51.980;5.848;2023-03-01T06:52:56;1.40;99.90
42019;DHT22;27703;51.980;5.848;2023-03-01T06:55:22;1.50;99.90
42019;DHT22;27703;51.980;5.848;2023-03-01T06:57:47;1.50;99.90
42019;DHT22;27703;51.980;5.848;2023-03-01T07:00:13;1.50;99.90
42019;DHT22;27703;51.980;5.848;2023-03-01T07:02:39;1.60;99.90
42019;DHT22;27703;51.980;5.848;2023-03-01T07:05:05;1.60;99.90
42019;DHT22;27703;51.980;5.848;2023-03-01T07:07:31;1.70;99.90
42019;DHT22;27703;51.980;5.848;2023-03-01T07:09:56;1.70;99.90
42019;DHT22;27703;51.980;5.848;2023-03-01T07:12:22;1.70;99.90
42019;DHT22;27703;51.980;5.848;2023-03-01T07:14:48;1.80;99.90
42019;DHT22;27703;51.980;5.848;2023-03-01T07:17:13;1.80;99.90
42019;DHT22;27703;51.980;5.848;2023-03-01T07:19:39;1.80;99.90
42019;DHT22;27703;51.980;5.848;2023-03-01T07:22:04;1.90;99.90
42019;DHT22;27703;51.980;5.848;2023-03-01T07:24:33;1.90;99.90
42019;DHT22;27703;51.980;5.848;2023-03-01T07:26:58;1.90;99.90
42019;DHT22;27703;51.980;5.848;2023-03-01T07:29:24;2.00;99.90
42019;DHT22;27703;51.980;5.848;2023-03-01T07:31:50;2.00;99.90
42019;DHT22;27703;51.980;5.848;2023-03-01T07:34:15;2.10;99.90
42019;DHT22;27703;51.980;5.848;2023-03-01T07:36:41;2.10;99.90
42019;DHT22;27703;51.980;5.848;2023-03-01T07:39:09;2.20;99.90
42019;DHT22;27703;51.980;5.848;2023-03-01T07:41:35;2.30;99.90
42019;DHT22;27703;51.980;5.848;2023-03-01T07:44:01;2.40;99.90
42019;DHT22;27703;51.980;5.848;2023-03-01T07:46:26;2.50;99.90
42019;DHT22;27703;51.980;5.848;2023-03-01T07:48:52;2.60;99.90
42019;DHT22;27703;51.980;5.848;2023-03-01T07:51:18;2.70;99.90
42019;DHT22;27703;51.980;5.848;2023-03-01T07:53:46;2.80;99.90
42019;DHT22;27703;51.980;5.848;2023-03-01T07:56:13;2.90;99.90
42019;DHT22;27703;51.980;5.848;2023-03-01T07:58:42;3.00;99.90
42019;DHT22;27703;51.980;5.848;2023-03-01T08:01:09;3.10;99.90
42019;DHT22;27703;51.980;5.848;2023-03-01T08:03:36;3.10;99.90
42019;DHT22;27703;51.980;5.848;2023-03-01T08:06:03;3.20;99.90
42019;DHT22;27703;51.980;5.848;2023-03-01T08:08:29;3.30;99.90
42019;DHT22;27703;51.980;5.848;2023-03-01T08:11:03;3.40;99.90
42019;DHT22;27703;51.980;5.848;2023-03-01T08:13:29;3.50;99.90
42019;DHT22;27703;51.980;5.848;2023-03-01T08:16:01;3.60;99.90
42019;DHT22;27703;51.980;5.848;2023-03-01T08:18:27;3.70;99.90
42019;DHT22;27703;51.980;5.848;2023-03-01T08:20:52;3.70;99.90
42019;DHT22;27703;51.980;5.848;2023-03-01T08:23:18;3.90;99.90
42019;DHT22;27703;51.980;5.848;2023-03-01T08:25:44;3.90;99.90
42019;DHT22;27703;51.980;5.848;2023-03-01T08:28:09;4.00;99.90
42019;DHT22;27703;51.980;5.848;2023-03-01T08:30:35;4.10;99.90
42019;DHT22;27703;51.980;5.848;2023-03-01T08:33:00;4.10;99.90
42019;DHT22;27703;51.980;5.848;2023-03-01T08:35:26;4.30;99.90
42019;DHT22;27703;51.980;5.848;2023-03-01T08:37:51;4.30;99.90
42019;DHT22;27703;51.980;5.848;2023-03-01T08:40:17;4.40;99.90
42019;DHT22;27703;51.980;5.848;2023-03-01T08:42:43;4.50;99.90
42019;DHT22;27703;51.980;5.848;2023-03-01T08:45:09;4.60;99.90
42019;DHT22;27703;51.980;5.848;2023-03-01T08:47:35;4.60;99.90
42019;DHT22;27703;51.980;5.848;2023-03-01T08:50:02;4.70;99.90
42019;DHT22;27703;51.980;5.848;2023-03-01T08:52:28;4.80;99.90
42019;DHT22;27703;51.980;5.848;2023-03-01T08:54:55;4.80;99.90
42019;DHT22;27703;51.980;5.848;2023-03-01T08:57:21;4.90;99.90
42019;DHT22;27703;51.980;5.848;2023-03-01T08:59:47;5.00;99.90
42019;DHT22;27703;51.980;5.848;2023-03-01T09:02:14;5.00;99.70
42019;DHT22;27703;51.980;5.848;2023-03-01T09:04:40;5.10;99.50
42019;DHT22;27703;51.980;5.848;2023-03-01T09:07:06;5.10;99.40
42019;DHT22;27703;51.980;5.848;2023-03-01T09:09:32;5.20;99.20
42019;DHT22;27703;51.980;5.848;2023-03-01T09:11:57;5.20;99.20
42019;DHT22;27703;51.980;5.848;2023-03-01T09:14:23;5.30;99.00
42019;DHT22;27703;51.980;5.848;2023-03-01T09:16:48;5.40;99.10
42019;DHT22;27703;51.980;5.848;2023-03-01T09:19:14;5.40;98.30
42019;DHT22;27703;51.980;5.848;2023-03-01T09:21:40;5.50;98.20
42019;DHT22;27703;51.980;5.848;2023-03-01T09:24:07;5.50;98.10
42019;DHT22;27703;51.980;5.848;2023-03-01T09:26:36;5.60;98.20
42019;DHT22;27703;51.980;5.848;2023-03-01T09:29:02;5.70;97.40
42019;DHT22;27703;51.980;5.848;2023-03-01T09:31:28;5.70;97.00
42019;DHT22;27703;51.980;5.848;2023-03-01T09:33:53;5.80;97.00
42019;DHT22;27703;51.980;5.848;2023-03-01T09:36:22;5.90;96.00
42019;DHT22;27703;51.980;5.848;2023-03-01T09:38:49;5.80;95.70
42019;DHT22;27703;51.980;5.848;2023-03-01T09:43:50;6.00;95.50
42019;DHT22;27703;51.980;5.848;2023-03-01T09:46:21;5.80;95.50
42019;DHT22;27703;51.980;5.848;2023-03-01T09:49:00;6.00;94.90
42019;DHT22;27703;51.980;5.848;2023-03-01T09:51:32;6.00;94.60
42019;DHT22;27703;51.980;5.848;2023-03-01T09:54:01;6.00;94.30
42019;DHT22;27703;51.980;5.848;2023-03-01T09:56:47;6.10;94.20
42019;DHT22;27703;51.980;5.848;2023-03-01T09:59:23;6.20;94.20
42019;DHT22;27703;51.980;5.848;2023-03-01T10:05:02;6.20;93.50
42019;DHT22;27703;51.980;5.848;2023-03-01T10:07:52;6.30;93.30
42019;DHT22;27703;51.980;5.848;2023-03-01T10:10:28;6.30;93.00
42019;DHT22;27703;51.980;5.848;2023-03-01T10:12:57;6.30;93.40
42019;DHT22;27703;51.980;5.848;2023-03-01T10:15:36;6.30;93.60
42019;DHT22;27703;51.980;5.848;2023-03-01T10:18:09;6.40;93.90
42019;DHT22;27703;51.980;5.848;2023-03-01T10:20:52;6.50;93.40
42019;DHT22;27703;51.980;5.848;2023-03-01T10:23:18;6.50;93.40
42019;DHT22;27703;51.980;5.848;2023-03-01T10:26:20;6.70;93.00
42019;DHT22;27703;51.980;5.848;2023-03-01T10:29:03;6.70;92.90
42019;DHT22;27703;51.980;5.848;2023-03-01T10:31:47;6.80;92.70
42019;DHT22;27703;51.980;5.848;2023-03-01T10:34:14;6.90;92.60
42019;DHT22;27703;51.980;5.848;2023-03-01T10:36:42;7.00;92.80
42019;DHT22;27703;51.980;5.848;2023-03-01T10:44:44;7.20;92.00
42019;DHT22;27703;51.980;5.848;2023-03-01T10:47:20;7.30;92.20
42019;DHT22;27703;51.980;5.848;2023-03-01T10:50:02;7.40;92.60
42019;DHT22;27703;51.980;5.848;2023-03-01T10:52:34;7.50;92.20
42019;DHT22;27703;51.980;5.848;2023-03-01T10:57:46;7.60;92.00
42019;DHT22;27703;51.980;5.848;2023-03-01T11:00:20;7.70;92.00
42019;DHT22;27703;51.980;5.848;2023-03-01T11:02:51;7.80;91.70
42019;DHT22;27703;51.980;5.848;2023-03-01T11:05:26;7.80;91.50
42019;DHT22;27703;51.980;5.848;2023-03-01T11:08:00;7.80;91.50
42019;DHT22;27703;51.980;5.848;2023-03-01T11:10:34;7.90;91.40
42019;DHT22;27703;51.980;5.848;2023-03-01T11:13:29;8.10;91.30
42019;DHT22;27703;51.980;5.848;2023-03-01T11:15:59;8.20;91.90
42019;DHT22;27703;51.980;5.848;2023-03-01T11:18:26;8.30;92.10
42019;DHT22;27703;51.980;5.848;2023-03-01T11:20:53;8.40;92.50
42019;DHT22;27703;51.980;5.848;2023-03-01T11:23:20;8.50;92.30
42019;DHT22;27703;51.980;5.848;2023-03-01T11:26:01;8.60;92.40
42019;DHT22;27703;51.980;5.848;2023-03-01T11:28:29;8.60;91.90
42019;DHT22;27703;51.980;5.848;2023-03-01T11:31:07;8.50;91.60
42019;DHT22;27703;51.980;5.848;2023-03-01T11:33:36;8.60;92.10
42019;DHT22;27703;51.980;5.848;2023-03-01T11:36:06;8.60;92.00
42019;DHT22;27703;51.980;5.848;2023-03-01T11:38:35;8.60;91.40
42019;DHT22;27703;51.980;5.848;2023-03-01T11:41:19;8.70;90.70
42019;DHT22;27703;51.980;5.848;2023-03-01T11:43:55;8.70;90.40
42019;DHT22;27703;51.980;5.848;2023-03-01T11:52:08;8.80;90.30
42019;DHT22;27703;51.980;5.848;2023-03-01T11:57:41;8.80;90.60
42019;DHT22;27703;51.980;5.848;2023-03-01T12:23:16;8.90;89.80
42019;DHT22;27703;51.980;5.848;2023-03-01T12:31:29;9.30;90.00
42019;DHT22;27703;51.980;5.848;2023-03-01T12:34:00;9.30;90.40
42019;DHT22;27703;51.980;5.848;2023-03-01T12:36:50;9.40;91.50
42019;DHT22;27703;51.980;5.848;2023-03-01T12:45:34;9.40;90.00
42019;DHT22;27703;51.980;5.848;2023-03-01T12:51:07;9.20;90.00
42019;DHT22;27703;51.980;5.848;2023-03-01T12:53:40;9.30;90.30
42019;DHT22;27703;51.980;5.848;2023-03-01T12:56:13;9.20;90.00
42019;DHT22;27703;51.980;5.848;2023-03-01T13:07:28;9.30;88.20
42019;DHT22;27703;51.980;5.848;2023-03-01T13:15:37;9.50;89.90
42019;DHT22;27703;51.980;5.848;2023-03-01T13:20:45;10.40;90.00
42019;DHT22;27703;51.980;5.848;2023-03-01T13:34:03;11.00;85.60
42019;DHT22;27703;51.980;5.848;2023-03-01T13:39:05;10.90;86.30
42019;DHT22;27703;51.980;5.848;2023-03-01T13:41:54;10.80;85.80
42019;DHT22;27703;51.980;5.848;2023-03-01T13:47:13;10.40;83.60
42019;DHT22;27703;51.980;5.848;2023-03-01T13:49:52;10.30;84.70
42019;DHT22;27703;51.980;5.848;2023-03-01T13:52:40;10.20;86.70
42019;DHT22;27703;51.980;5.848;2023-03-01T13:55:47;10.20;87.90
42019;DHT22;27703;51.980;5.848;2023-03-01T13:58:23;10.20;86.50
42019;DHT22;27703;51.980;5.848;2023-03-01T14:01:06;10.20;85.30
42019;DHT22;27703;51.980;5.848;2023-03-01T14:03:32;10.40;86.30
42019;DHT22;27703;51.980;5.848;2023-03-01T14:06:03;11.10;87.30
42019;DHT22;27703;51.980;5.848;2023-03-01T14:08:30;11.80;87.10
42019;DHT22;27703;51.980;5.848;2023-03-01T14:13:54;11.90;86.70
42019;DHT22;27703;51.980;5.848;2023-03-01T14:19:27;11.60;88.90
42019;DHT22;27703;51.980;5.848;2023-03-01T14:25:19;11.30;88.20
42019;DHT22;27703;51.980;5.848;2023-03-01T14:28:36;10.90;89.70
42019;DHT22;27703;51.980;5.848;2023-03-01T14:30:41;10.80;90.30
42019;DHT22;27703;51.980;5.848;2023-03-01T14:33:20;10.70;90.60
42019;DHT22;27703;51.980;5.848;2023-03-01T14:36:12;10.60;90.20
42019;DHT22;27703;51.980;5.848;2023-03-01T14:38:41;10.60;90.40
42019;DHT22;27703;51.980;5.848;2023-03-01T14:41:21;10.60;90.50
42019;DHT22;27703;51.980;5.848;2023-03-01T14:43:51;10.60;89.60
42019;DHT22;27703;51.980;5.848;2023-03-01T14:46:32;10.50;89.90
42019;DHT22;27703;51.980;5.848;2023-03-01T14:49:06;10.50;90.10
42019;DHT22;27703;51.980;5.848;2023-03-01T14:51:37;10.50;88.70
42019;DHT22;27703;51.980;5.848;2023-03-01T14:54:04;10.50;89.70
42019;DHT22;27703;51.980;5.848;2023-03-01T14:56:43;10.50;90.10
42019;DHT22;27703;51.980;5.848;2023-03-01T14:59:09;10.50;90.20
42019;DHT22;27703;51.980;5.848;2023-03-01T15:01:36;10.70;90.40
42019;DHT22;27703;51.980;5.848;2023-03-01T15:04:02;10.90;90.50
42019;DHT22;27703;51.980;5.848;2023-03-01T15:06:28;10.90;90.60
42019;DHT22;27703;51.980;5.848;2023-03-01T15:08:54;10.80;90.40
42019;DHT22;27703;51.980;5.848;2023-03-01T15:11:32;10.80;90.50
42019;DHT22;27703;51.980;5.848;2023-03-01T15:13:58;10.80;90.50
42019;DHT22;27703;51.980;5.848;2023-03-01T15:16:27;10.70;89.60
42019;DHT22;27703;51.980;5.848;2023-03-01T15:18:56;10.60;87.10
42019;DHT22;27703;51.980;5.848;2023-03-01T15:21:31;10.40;88.20
42019;DHT22;27703;51.980;5.848;2023-03-01T15:24:16;10.40;89.60
42019;DHT22;27703;51.980;5.848;2023-03-01T15:26:56;10.30;90.10
42019;DHT22;27703;51.980;5.848;2023-03-01T15:29:27;10.30;90.20
42019;DHT22;27703;51.980;5.848;2023-03-01T15:34:50;10.20;90.20
42019;DHT22;27703;51.980;5.848;2023-03-01T15:37:45;10.30;90.20
42019;DHT22;27703;51.980;5.848;2023-03-01T15:42:45;10.20;89.20
42019;DHT22;27703;51.980;5.848;2023-03-01T15:45:22;10.20;88.60
42019;DHT22;27703;51.980;5.848;2023-03-01T15:47:50;10.20;88.40
42019;DHT22;27703;51.980;5.848;2023-03-01T15:50:32;10.10;87.80
42019;DHT22;27703;51.980;5.848;2023-03-01T15:53:00;10.00;87.00
42019;DHT22;27703;51.980;5.848;2023-03-01T15:55:28;9.90;87.60
42019;DHT22;27703;51.980;5.848;2023-03-01T16:00:32;9.90;87.80
42019;DHT22;27703;51.980;5.848;2023-03-01T16:02:57;9.80;87.00
42019;DHT22;27703;51.980;5.848;2023-03-01T16:05:32;9.70;87.70
42019;DHT22;27703;51.980;5.848;2023-03-01T16:07:58;9.70;87.60
42019;DHT22;27703;51.980;5.848;2023-03-01T16:10:24;9.50;88.90
42019;DHT22;27703;51.980;5.848;2023-03-01T16:12:50;9.50;90.20
42019;DHT22;27703;51.980;5.848;2023-03-01T16:15:22;9.40;90.10
42019;DHT22;27703;51.980;5.848;2023-03-01T16:17:47;9.30;90.10
42019;DHT22;27703;51.980;5.848;2023-03-01T16:20:13;9.10;90.00
42019;DHT22;27703;51.980;5.848;2023-03-01T16:22:44;9.10;90.00
42019;DHT22;27703;51.980;5.848;2023-03-01T16:25:16;9.00;90.00
42019;DHT22;27703;51.980;5.848;2023-03-01T16:27:46;9.00;89.20
42019;DHT22;27703;51.980;5.848;2023-03-01T16:30:14;8.90;89.20
42019;DHT22;27703;51.980;5.848;2023-03-01T16:32:43;8.80;88.70
42019;DHT22;27703;51.980;5.848;2023-03-01T16:35:11;8.70;88.70
42019;DHT22;27703;51.980;5.848;2023-03-01T16:37:38;8.70;89.40
42019;DHT22;27703;51.980;5.848;2023-03-01T16:40:05;8.60;88.70
42019;DHT22;27703;51.980;5.848;2023-03-01T16:42:34;8.50;89.20
42019;DHT22;27703;51.980;5.848;2023-03-01T16:45:00;8.40;89.00
42019;DHT22;27703;51.980;5.848;2023-03-01T16:47:27;8.30;89.40
42019;DHT22;27703;51.980;5.848;2023-03-01T16:49:53;8.30;89.80
42019;DHT22;27703;51.980;5.848;2023-03-01T16:52:20;8.20;89.90
42019;DHT22;27703;51.980;5.848;2023-03-01T16:54:45;8.20;90.30
42019;DHT22;27703;51.980;5.848;2023-03-01T16:57:11;8.20;90.20
42019;DHT22;27703;51.980;5.848;2023-03-01T16:59:36;8.10;90.30
42019;DHT22;27703;51.980;5.848;2023-03-01T17:02:08;8.20;90.20
42019;DHT22;27703;51.980;5.848;2023-03-01T17:04:36;8.10;90.50
42019;DHT22;27703;51.980;5.848;2023-03-01T17:07:01;8.10;90.50
42019;DHT22;27703;51.980;5.848;2023-03-01T17:09:27;8.00;90.60
42019;DHT22;27703;51.980;5.848;2023-03-01T17:11:53;8.00;90.60
42019;DHT22;27703;51.980;5.848;2023-03-01T17:14:19;7.90;90.50
42019;DHT22;27703;51.980;5.848;2023-03-01T17:16:45;7.90;90.60
42019;DHT22;27703;51.980;5.848;2023-03-01T17:19:11;7.80;90.30
42019;DHT22;27703;51.980;5.848;2023-03-01T17:21:43;7.80;90.30
42019;DHT22;27703;51.980;5.848;2023-03-01T17:24:08;7.70;90.30
42019;DHT22;27703;51.980;5.848;2023-03-01T17:26:34;7.70;90.30
42019;DHT22;27703;51.980;5.848;2023-03-01T17:29:01;7.60;90.30
42019;DHT22;27703;51.980;5.848;2023-03-01T17:31:26;7.60;90.40
42019;DHT22;27703;51.980;5.848;2023-03-01T17:33:52;7.50;90.40
42019;DHT22;27703;51.980;5.848;2023-03-01T17:36:18;7.50;90.60
42019;DHT22;27703;51.980;5.848;2023-03-01T17:38:43;7.50;90.50
42019;DHT22;27703;51.980;5.848;2023-03-01T17:41:10;7.40;90.70
42019;DHT22;27703;51.980;5.848;2023-03-01T17:43:37;7.40;90.60
42019;DHT22;27703;51.980;5.848;2023-03-01T17:46:03;7.30;90.60
42019;DHT22;27703;51.980;5.848;2023-03-01T17:48:28;7.30;90.60
42019;DHT22;27703;51.980;5.848;2023-03-01T17:50:54;7.20;90.70
42019;DHT22;27703;51.980;5.848;2023-03-01T17:53:20;7.20;90.70
42019;DHT22;27703;51.980;5.848;2023-03-01T17:55:46;7.10;90.90